sensor_id;sensor_type;location;lat;lon;timestamp;pressure;altitude;pressure_sealevel;temperature;humidity
59043;BME280;44826;51.596;5.624;2022-07-29T00:00:21;101569.34;;;16.94;56.33
59043;BME280;44826;51.596;5.624;2022-07-29T00:02:46;101562.53;;;16.90;56.59
59043;BME280;44826;51.596;5.624;2022-07-29T00:05:12;101558.19;;;16.89;56.65
59043;BME280;44826;51.596;5.624;2022-07-29T00:07:38;101557.41;;;16.87;56.87
59043;BME280;44826;51.596;5.624;2022-07-29T00:10:04;101556.59;;;16.84;56.60
59043;BME280;44826;51.596;5.624;2022-07-29T00:12:29;101560.22;;;16.82;56.97
59043;BME280;44826;51.596;5.624;2022-07-29T00:14:55;101568.22;;;16.79;57.40
59043;BME280;44826;51.596;5.624;2022-07-29T00:17:21;101565.59;;;16.79;56.94
59043;BME280;44826;51.596;5.624;2022-07-29T00:19:47;101558.53;;;16.79;56.48
59043;BME280;44826;51.596;5.624;2022-07-29T00:22:12;101559.41;;;16.80;57.01
59043;BME280;44826;51.596;5.624;2022-07-29T00:24:37;101559.47;;;16.78;57.03
59043;BME280;44826;51.596;5.624;2022-07-29T00:27:03;101550.66;;;16.79;56.70
59043;BME280;44826;51.596;5.624;2022-07-29T00:29:28;101546.19;;;16.81;56.60
59043;BME280;44826;51.596;5.624;2022-07-29T00:31:54;101549.75;;;16.80;56.47
59043;BME280;44826;51.596;5.624;2022-07-29T00:34:19;101550.47;;;16.84;56.45
59043;BME280;44826;51.596;5.624;2022-07-29T00:37:03;101547.00;;;16.83;56.50
59043;BME280;44826;51.596;5.624;2022-07-29T00:39:29;101551.47;;;16.81;57.08
59043;BME280;44826;51.596;5.624;2022-07-29T00:41:54;101544.59;;;16.77;56.64
59043;BME280;44826;51.596;5.624;2022-07-29T00:44:19;101550.84;;;16.75;57.54
59043;BME280;44826;51.596;5.624;2022-07-29T00:46:45;101553.56;;;16.73;57.40
59043;BME280;44826;51.596;5.624;2022-07-29T00:49:10;101552.88;;;16.68;58.15
59043;BME280;44826;51.596;5.624;2022-07-29T00:51:37;101559.03;;;16.67;58.35
59043;BME280;44826;51.596;5.624;2022-07-29T00:54:03;101563.56;;;16.63;58.86
59043;BME280;44826;51.596;5.624;2022-07-29T00:56:32;101566.38;;;16.59;60.16
59043;BME280;44826;51.596;5.624;2022-07-29T00:58:58;101571.75;;;16.56;60.89
59043;BME280;44826;51.596;5.624;2022-07-29T01:01:24;101584.31;;;16.47;60.73
59043;BME280;44826;51.596;5.624;2022-07-29T01:03:49;101601.06;;;16.45;61.73
59043;BME280;44826;51.596;5.624;2022-07-29T01:06:16;101609.09;;;16.40;61.98
59043;BME280;44826;51.596;5.624;2022-07-29T01:08:47;101622.41;;;16.35;60.81
59043;BME280;44826;51.596;5.624;2022-07-29T01:11:13;101633.03;;;16.32;60.71
59043;BME280;44826;51.596;5.624;2022-07-29T01:13:40;101640.91;;;16.32;60.75
59043;BME280;44826;51.596;5.624;2022-07-29T01:16:25;101614.09;;;16.24;60.14
59043;BME280;44826;51.596;5.624;2022-07-29T01:18:58;101615.06;;;16.21;61.19
59043;BME280;44826;51.596;5.624;2022-07-29T01:21:51;101622.94;;;16.21;60.85
59043;BME280;44826;51.596;5.624;2022-07-29T01:24:33;101605.63;;;16.16;61.08
59043;BME280;44826;51.596;5.624;2022-07-29T01:29:49;101596.91;;;16.15;61.96
59043;BME280;44826;51.596;5.624;2022-07-29T01:32:20;101588.22;;;16.13;62.49
59043;BME280;44826;51.596;5.624;2022-07-29T01:34:52;101571.47;;;16.17;62.77
59043;BME280;44826;51.596;5.624;2022-07-29T01:37:27;101567.06;;;16.18;63.10
59043;BME280;44826;51.596;5.624;2022-07-29T01:39:55;101546.00;;;16.19;62.99
59043;BME280;44826;51.596;5.624;2022-07-29T01:42:34;101530.00;;;16.26;62.58
59043;BME280;44826;51.596;5.624;2022-07-29T01:47:54;101533.91;;;16.15;66.14
59043;BME280;44826;51.596;5.624;2022-07-29T01:50:23;101527.34;;;16.03;66.98
59043;BME280;44826;51.596;5.624;2022-07-29T01:53:00;101513.06;;;15.88;66.01
59043;BME280;44826;51.596;5.624;2022-07-29T01:55:29;101512.66;;;15.74;69.23
59043;BME280;44826;51.596;5.624;2022-07-29T01:57:56;101507.06;;;15.59;70.86
59043;BME280;44826;51.596;5.624;2022-07-29T02:00:23;101506.63;;;15.46;71.87
59043;BME280;44826;51.596;5.624;2022-07-29T02:02:49;101497.28;;;15.39;73.01
59043;BME280;44826;51.596;5.624;2022-07-29T02:05:17;101484.38;;;15.33;73.17
59043;BME280;44826;51.596;5.624;2022-07-29T02:07:46;101480.13;;;15.30;72.33
59043;BME280;44826;51.596;5.624;2022-07-29T02:10:13;101485.56;;;15.24;73.63
59043;BME280;44826;51.596;5.624;2022-07-29T02:12:42;101489.34;;;15.17;71.93
59043;BME280;44826;51.596;5.624;2022-07-29T02:15:09;101493.94;;;15.10;72.51
59043;BME280;44826;51.596;5.624;2022-07-29T02:17:39;101490.91;;;14.96;72.44
59043;BME280;44826;51.596;5.624;2022-07-29T02:20:07;101489.50;;;14.85;74.67
59043;BME280;44826;51.596;5.624;2022-07-29T02:22:35;101479.88;;;14.86;74.33
59043;BME280;44826;51.596;5.624;2022-07-29T02:25:02;101480.66;;;14.90;73.92
59043;BME280;44826;51.596;5.624;2022-07-29T02:27:29;101496.09;;;14.97;73.10
59043;BME280;44826;51.596;5.624;2022-07-29T02:29:58;101492.69;;;14.95;72.67
59043;BME280;44826;51.596;5.624;2022-07-29T02:32:25;101497.09;;;14.93;74.08
59043;BME280;44826;51.596;5.624;2022-07-29T02:34:52;101483.00;;;14.97;72.97
59043;BME280;44826;51.596;5.624;2022-07-29T02:37:18;101457.88;;;15.17;72.32
59043;BME280;44826;51.596;5.624;2022-07-29T02:39:44;101453.56;;;15.40;71.42
59043;BME280;44826;51.596;5.624;2022-07-29T02:42:13;101468.97;;;15.49;71.22
59043;BME280;44826;51.596;5.624;2022-07-29T02:44:39;101462.34;;;15.39;71.05
59043;BME280;44826;51.596;5.624;2022-07-29T02:47:24;101461.81;;;15.29;70.83
59043;BME280;44826;51.596;5.624;2022-07-29T02:50:12;101463.94;;;15.19;70.13
59043;BME280;44826;51.596;5.624;2022-07-29T02:53:12;101451.75;;;15.16;69.72
59043;BME280;44826;51.596;5.624;2022-07-29T02:55:44;101443.91;;;15.16;72.31
59043;BME280;44826;51.596;5.624;2022-07-29T02:58:33;101452.03;;;15.09;70.92
59043;BME280;44826;51.596;5.624;2022-07-29T03:01:04;101456.00;;;14.95;72.92
59043;BME280;44826;51.596;5.624;2022-07-29T03:03:36;101463.47;;;14.81;74.34
59043;BME280;44826;51.596;5.624;2022-07-29T03:06:03;101463.81;;;14.70;74.63
59043;BME280;44826;51.596;5.624;2022-07-29T03:08:31;101472.00;;;14.59;75.77
59043;BME280;44826;51.596;5.624;2022-07-29T03:10:57;101462.75;;;14.49;76.25
59043;BME280;44826;51.596;5.624;2022-07-29T03:13:23;101456.88;;;14.40;76.76
59043;BME280;44826;51.596;5.624;2022-07-29T03:15:49;101461.38;;;14.37;76.90
59043;BME280;44826;51.596;5.624;2022-07-29T03:18:15;101465.84;;;14.33;76.94
59043;BME280;44826;51.596;5.624;2022-07-29T03:20:40;101472.03;;;14.31;77.30
59043;BME280;44826;51.596;5.624;2022-07-29T03:23:07;101463.25;;;14.32;75.95
59043;BME280;44826;51.596;5.624;2022-07-29T03:25:33;101467.66;;;14.31;75.88
59043;BME280;44826;51.596;5.624;2022-07-29T03:27:59;101479.03;;;14.30;76.37
59043;BME280;44826;51.596;5.624;2022-07-29T03:30:24;101483.53;;;14.25;76.72
59043;BME280;44826;51.596;5.624;2022-07-29T03:32:51;101479.22;;;14.24;77.81
59043;BME280;44826;51.596;5.624;2022-07-29T03:35:16;101472.34;;;14.20;78.25
59043;BME280;44826;51.596;5.624;2022-07-29T03:37:43;101474.13;;;14.19;79.43
59043;BME280;44826;51.596;5.624;2022-07-29T03:40:11;101471.66;;;14.15;78.72
59043;BME280;44826;51.596;5.624;2022-07-29T03:42:39;101477.81;;;14.12;79.28
59043;BME280;44826;51.596;5.624;2022-07-29T03:45:09;101483.06;;;14.12;80.13
59043;BME280;44826;51.596;5.624;2022-07-29T03:47:39;101493.50;;;14.14;80.49
59043;BME280;44826;51.596;5.624;2022-07-29T03:50:07;101504.03;;;14.10;80.46
59043;BME280;44826;51.596;5.624;2022-07-29T03:52:34;101497.94;;;14.10;81.12
59043;BME280;44826;51.596;5.624;2022-07-29T03:54:59;101490.88;;;14.14;79.66
59043;BME280;44826;51.596;5.624;2022-07-29T03:57:28;101483.84;;;14.16;79.42
59043;BME280;44826;51.596;5.624;2022-07-29T03:59:54;101480.41;;;14.14;80.10
59043;BME280;44826;51.596;5.624;2022-07-29T04:02:20;101474.28;;;14.13;80.25
59043;BME280;44826;51.596;5.624;2022-07-29T04:04:46;101466.50;;;14.11;80.29
59043;BME280;44826;51.596;5.624;2022-07-29T04:07:13;101474.44;;;14.08;81.52
59043;BME280;44826;51.596;5.624;2022-07-29T04:09:38;101478.88;;;14.06;80.76
59043;BME280;44826;51.596;5.624;2022-07-29T04:12:04;101482.22;;;14.11;80.82
59043;BME280;44826;51.596;5.624;2022-07-29T04:14:31;101476.88;;;14.15;79.46
59043;BME280;44826;51.596;5.624;2022-07-29T04:16:56;101484.75;;;14.15;80.97
59043;BME280;44826;51.596;5.624;2022-07-29T04:19:21;101487.28;;;14.16;80.53
59043;BME280;44826;51.596;5.624;2022-07-29T04:21:47;101487.28;;;14.16;79.90
59043;BME280;44826;51.596;5.624;2022-07-29T04:24:12;101487.06;;;14.24;78.93
59043;BME280;44826;51.596;5.624;2022-07-29T04:26:38;101478.13;;;14.31;78.44
59043;BME280;44826;51.596;5.624;2022-07-29T04:29:03;101479.06;;;14.29;78.49
59043;BME280;44826;51.596;5.624;2022-07-29T04:31:28;101477.41;;;14.26;78.69
59043;BME280;44826;51.596;5.624;2022-07-29T04:33:54;101481.81;;;14.24;78.95
59043;BME280;44826;51.596;5.624;2022-07-29T04:36:19;101471.34;;;14.24;78.49
59043;BME280;44826;51.596;5.624;2022-07-29T04:38:44;101474.84;;;14.24;78.95
59043;BME280;44826;51.596;5.624;2022-07-29T04:41:09;101489.75;;;14.21;79.43
59043;BME280;44826;51.596;5.624;2022-07-29T04:43:35;101498.56;;;14.18;79.93
59043;BME280;44826;51.596;5.624;2022-07-29T04:46:01;101501.25;;;14.17;78.74
59043;BME280;44826;51.596;5.624;2022-07-29T04:48:27;101515.25;;;14.16;79.26
59043;BME280;44826;51.596;5.624;2022-07-29T04:50:52;101513.22;;;14.24;78.77
59043;BME280;44826;51.596;5.624;2022-07-29T04:53:18;101512.75;;;14.39;78.69
59043;BME280;44826;51.596;5.624;2022-07-29T04:55:43;101523.38;;;14.63;77.26
59043;BME280;44826;51.596;5.624;2022-07-29T04:58:09;101509.06;;;14.75;76.52
59043;BME280;44826;51.596;5.624;2022-07-29T05:00:35;101507.69;;;14.90;75.83
59043;BME280;44826;51.596;5.624;2022-07-29T05:03:00;101503.75;;;15.03;75.24
59043;BME280;44826;51.596;5.624;2022-07-29T05:05:25;101506.97;;;15.12;74.85
59043;BME280;44826;51.596;5.624;2022-07-29T05:07:51;101513.75;;;15.17;74.58
59043;BME280;44826;51.596;5.624;2022-07-29T05:10:16;101520.63;;;15.22;74.15
59043;BME280;44826;51.596;5.624;2022-07-29T05:12:41;101525.00;;;15.21;74.05
59043;BME280;44826;51.596;5.624;2022-07-29T05:15:07;101529.44;;;15.19;74.51
59043;BME280;44826;51.596;5.624;2022-07-29T05:17:32;101521.53;;;15.21;74.39
59043;BME280;44826;51.596;5.624;2022-07-29T05:19:58;101525.97;;;15.18;74.32
59043;BME280;44826;51.596;5.624;2022-07-29T05:22:23;101533.00;;;15.16;74.66
59043;BME280;44826;51.596;5.624;2022-07-29T05:24:49;101538.09;;;15.21;74.74
59043;BME280;44826;51.596;5.624;2022-07-29T05:27:14;101542.13;;;15.31;73.79
59043;BME280;44826;51.596;5.624;2022-07-29T05:29:39;101527.09;;;15.37;73.90
59043;BME280;44826;51.596;5.624;2022-07-29T05:32:05;101533.09;;;15.40;73.96
59043;BME280;44826;51.596;5.624;2022-07-29T05:34:31;101542.50;;;15.46;73.48
59043;BME280;44826;51.596;5.624;2022-07-29T05:36:56;101520.63;;;15.47;73.49
59043;BME280;44826;51.596;5.624;2022-07-29T05:39:22;101519.91;;;15.42;73.89
59043;BME280;44826;51.596;5.624;2022-07-29T05:41:47;101530.47;;;15.40;73.58
59043;BME280;44826;51.596;5.624;2022-07-29T05:44:12;101530.41;;;15.42;73.29
59043;BME280;44826;51.596;5.624;2022-07-29T05:46:38;101529.50;;;15.43;73.29
59043;BME280;44826;51.596;5.624;2022-07-29T05:49:04;101527.47;;;15.51;73.08
59043;BME280;44826;51.596;5.624;2022-07-29T05:51:31;101535.97;;;15.58;73.22
59043;BME280;44826;51.596;5.624;2022-07-29T05:53:56;101533.38;;;15.56;73.67
59043;BME280;44826;51.596;5.624;2022-07-29T05:56:21;101533.28;;;15.59;73.26
59043;BME280;44826;51.596;5.624;2022-07-29T05:58:47;101541.97;;;15.61;72.88
59043;BME280;44826;51.596;5.624;2022-07-29T06:01:12;101536.41;;;15.71;72.32
59043;BME280;44826;51.596;5.624;2022-07-29T06:03:37;101533.50;;;15.78;72.30
59043;BME280;44826;51.596;5.624;2022-07-29T06:06:03;101536.16;;;15.77;72.08
59043;BME280;44826;51.596;5.624;2022-07-29T06:08:28;101528.38;;;15.74;72.61
59043;BME280;44826;51.596;5.624;2022-07-29T06:10:54;101526.81;;;15.70;73.05
59043;BME280;44826;51.596;5.624;2022-07-29T06:13:19;101529.53;;;15.67;73.01
59043;BME280;44826;51.596;5.624;2022-07-29T06:15:44;101533.88;;;15.68;72.81
59043;BME280;44826;51.596;5.624;2022-07-29T06:18:09;101536.41;;;15.71;72.23
59043;BME280;44826;51.596;5.624;2022-07-29T06:20:35;101531.81;;;15.76;71.85
59043;BME280;44826;51.596;5.624;2022-07-29T06:23:01;101531.78;;;15.77;71.56
59043;BME280;44826;51.596;5.624;2022-07-29T06:25:29;101530.81;;;15.80;72.16
59043;BME280;44826;51.596;5.624;2022-07-29T06:27:55;101540.31;;;15.83;72.36
59043;BME280;44826;51.596;5.624;2022-07-29T06:30:20;101539.94;;;15.93;72.02
59043;BME280;44826;51.596;5.624;2022-07-29T06:32:45;101542.38;;;16.00;71.35
59043;BME280;44826;51.596;5.624;2022-07-29T06:35:11;101547.66;;;15.98;71.50
59043;BME280;44826;51.596;5.624;2022-07-29T06:37:36;101549.44;;;15.98;72.17
59043;BME280;44826;51.596;5.624;2022-07-29T06:40:03;101545.00;;;16.00;71.56
59043;BME280;44826;51.596;5.624;2022-07-29T06:42:47;101541.28;;;16.05;71.05
59043;BME280;44826;51.596;5.624;2022-07-29T06:45:13;101541.66;;;16.18;70.83
59043;BME280;44826;51.596;5.624;2022-07-29T06:47:38;101541.41;;;16.24;70.49
59043;BME280;44826;51.596;5.624;2022-07-29T06:50:04;101531.78;;;16.25;70.48
59043;BME280;44826;51.596;5.624;2022-07-29T06:52:30;101524.75;;;16.26;70.15
59043;BME280;44826;51.596;5.624;2022-07-29T06:54:55;101522.00;;;16.29;70.11
59043;BME280;44826;51.596;5.624;2022-07-29T06:57:21;101520.19;;;16.31;69.99
59043;BME280;44826;51.596;5.624;2022-07-29T06:59:46;101521.09;;;16.30;69.71
59043;BME280;44826;51.596;5.624;2022-07-29T07:02:12;101531.50;;;16.33;68.75
59043;BME280;44826;51.596;5.624;2022-07-29T07:04:37;101539.28;;;16.34;68.96
59043;BME280;44826;51.596;5.624;2022-07-29T07:07:02;101535.94;;;16.31;68.05
59043;BME280;44826;51.596;5.624;2022-07-29T07:09:28;101538.56;;;16.31;68.57
59043;BME280;44826;51.596;5.624;2022-07-29T07:11:53;101541.19;;;16.31;68.78
59043;BME280;44826;51.596;5.624;2022-07-29T07:14:18;101548.97;;;16.34;69.29
59043;BME280;44826;51.596;5.624;2022-07-29T07:16:44;101542.91;;;16.32;68.73
59043;BME280;44826;51.596;5.624;2022-07-29T07:19:09;101539.38;;;16.33;69.00
59043;BME280;44826;51.596;5.624;2022-07-29T07:21:34;101539.19;;;16.37;69.01
59043;BME280;44826;51.596;5.624;2022-07-29T07:24:00;101545.22;;;16.39;69.23
59043;BME280;44826;51.596;5.624;2022-07-29T07:26:26;101547.56;;;16.47;68.90
59043;BME280;44826;51.596;5.624;2022-07-29T07:28:52;101545.72;;;16.49;68.57
59043;BME280;44826;51.596;5.624;2022-07-29T07:31:17;101543.09;;;16.49;68.19
59043;BME280;44826;51.596;5.624;2022-07-29T07:33:42;101546.72;;;16.47;68.79
59043;BME280;44826;51.596;5.624;2022-07-29T07:36:07;101551.09;;;16.46;68.64
59043;BME280;44826;51.596;5.624;2022-07-29T07:38:33;101551.91;;;16.48;68.85
59043;BME280;44826;51.596;5.624;2022-07-29T07:40:58;101563.88;;;16.56;68.40
59043;BME280;44826;51.596;5.624;2022-07-29T07:43:24;101557.34;;;16.66;68.73
59043;BME280;44826;51.596;5.624;2022-07-29T07:45:49;101566.75;;;16.72;68.13
59043;BME280;44826;51.596;5.624;2022-07-29T07:48:14;101564.78;;;16.77;67.93
59043;BME280;44826;51.596;5.624;2022-07-29T07:50:40;101563.69;;;16.82;67.74
59043;BME280;44826;51.596;5.624;2022-07-29T07:53:05;101564.38;;;16.88;68.66
59043;BME280;44826;51.596;5.624;2022-07-29T07:55:30;101563.56;;;16.86;68.01
59043;BME280;44826;51.596;5.624;2022-07-29T07:57:55;101567.22;;;16.81;68.02
59043;BME280;44826;51.596;5.624;2022-07-29T08:00:21;101572.56;;;16.80;67.83
59043;BME280;44826;51.596;5.624;2022-07-29T08:02:46;101573.47;;;16.79;67.63
59043;BME280;44826;51.596;5.624;2022-07-29T08:05:12;101581.41;;;16.77;67.89
59043;BME280;44826;51.596;5.624;2022-07-29T08:07:42;101578.88;;;16.74;67.93
59043;BME280;44826;51.596;5.624;2022-07-29T08:10:08;101579.03;;;16.71;67.95
59043;BME280;44826;51.596;5.624;2022-07-29T08:12:33;101581.59;;;16.73;67.70
59043;BME280;44826;51.596;5.624;2022-07-29T08:14:58;101581.28;;;16.80;67.57
59043;BME280;44826;51.596;5.624;2022-07-29T08:17:24;101578.41;;;16.87;67.41
59043;BME280;44826;51.596;5.624;2022-07-29T08:19:49;101583.38;;;16.94;67.55
59043;BME280;44826;51.596;5.624;2022-07-29T08:22:15;101585.00;;;16.98;67.38
59043;BME280;44826;51.596;5.624;2022-07-29T08:24:40;101583.13;;;17.01;67.15
59043;BME280;44826;51.596;5.624;2022-07-29T08:27:12;101577.69;;;17.05;67.09
59043;BME280;44826;51.596;5.624;2022-07-29T08:29:38;101572.97;;;17.13;68.03
59043;BME280;44826;51.596;5.624;2022-07-29T08:32:05;101572.75;;;17.18;67.54
59043;BME280;44826;51.596;5.624;2022-07-29T08:34:30;101571.72;;;17.22;68.07
59043;BME280;44826;51.596;5.624;2022-07-29T08:36:56;101576.66;;;17.30;68.78
59043;BME280;44826;51.596;5.624;2022-07-29T08:39:22;101573.97;;;17.32;66.03
59043;BME280;44826;51.596;5.624;2022-07-29T08:41:48;101562.59;;;17.31;66.94
59043;BME280;44826;51.596;5.624;2022-07-29T08:44:20;101570.34;;;17.34;66.77
59043;BME280;44826;51.596;5.624;2022-07-29T08:46:47;101567.66;;;17.36;66.90
59043;BME280;44826;51.596;5.624;2022-07-29T08:49:12;101564.88;;;17.39;66.28
59043;BME280;44826;51.596;5.624;2022-07-29T08:51:39;101568.44;;;17.38;67.77
59043;BME280;44826;51.596;5.624;2022-07-29T08:54:05;101562.72;;;17.28;66.85
59043;BME280;44826;51.596;5.624;2022-07-29T08:56:31;101565.50;;;17.25;69.38
59043;BME280;44826;51.596;5.624;2022-07-29T08:58:58;101570.34;;;17.34;68.72
59043;BME280;44826;51.596;5.624;2022-07-29T09:01:25;101570.59;;;17.49;66.91
59043;BME280;44826;51.596;5.624;2022-07-29T09:03:54;101578.75;;;17.63;66.60
59043;BME280;44826;51.596;5.624;2022-07-29T09:06:21;101570.47;;;17.72;65.65
59043;BME280;44826;51.596;5.624;2022-07-29T09:08:46;101572.63;;;17.83;66.50
59043;BME280;44826;51.596;5.624;2022-07-29T09:11:13;101573.22;;;17.90;65.56
59043;BME280;44826;51.596;5.624;2022-07-29T09:13:38;101568.56;;;17.95;65.09
59043;BME280;44826;51.596;5.624;2022-07-29T09:16:04;101568.25;;;18.03;64.88
59043;BME280;44826;51.596;5.624;2022-07-29T09:18:37;101566.22;;;18.10;66.44
59043;BME280;44826;51.596;5.624;2022-07-29T09:21:03;101563.28;;;18.16;64.48
59043;BME280;44826;51.596;5.624;2022-07-29T09:24:11;101562.88;;;18.25;65.16
59043;BME280;44826;51.596;5.624;2022-07-29T09:26:41;101569.53;;;18.32;65.45
59043;BME280;44826;51.596;5.624;2022-07-29T09:29:15;101566.69;;;18.37;64.70
59043;BME280;44826;51.596;5.624;2022-07-29T09:31:46;101575.19;;;18.44;62.77
59043;BME280;44826;51.596;5.624;2022-07-29T09:34:14;101574.09;;;18.48;62.21
59043;BME280;44826;51.596;5.624;2022-07-29T09:39:05;101579.78;;;18.58;61.35
59043;BME280;44826;51.596;5.624;2022-07-29T09:41:44;101585.91;;;18.58;62.71
59043;BME280;44826;51.596;5.624;2022-07-29T09:44:09;101582.97;;;18.64;61.59
59043;BME280;44826;51.596;5.624;2022-07-29T09:46:35;101588.72;;;18.73;63.25
59043;BME280;44826;51.596;5.624;2022-07-29T09:49:08;101590.13;;;18.80;62.31
59043;BME280;44826;51.596;5.624;2022-07-29T09:51:34;101584.66;;;18.85;62.04
59043;BME280;44826;51.596;5.624;2022-07-29T09:53:59;101588.81;;;18.89;62.69
59043;BME280;44826;51.596;5.624;2022-07-29T09:56:38;101584.06;;;18.97;62.63
59043;BME280;44826;51.596;5.624;2022-07-29T09:59:08;101575.38;;;18.95;60.91
59043;BME280;44826;51.596;5.624;2022-07-29T10:01:34;101587.41;;;19.01;62.25
59043;BME280;44826;51.596;5.624;2022-07-29T10:04:01;101583.53;;;19.08;60.81
59043;BME280;44826;51.596;5.624;2022-07-29T10:06:26;101591.75;;;19.19;61.93
59043;BME280;44826;51.596;5.624;2022-07-29T10:08:52;101576.22;;;19.31;61.09
59043;BME280;44826;51.596;5.624;2022-07-29T10:11:18;101582.78;;;19.41;59.34
59043;BME280;44826;51.596;5.624;2022-07-29T10:13:45;101579.78;;;19.47;60.19
59043;BME280;44826;51.596;5.624;2022-07-29T10:16:11;101584.91;;;19.50;59.68
59043;BME280;44826;51.596;5.624;2022-07-29T10:18:44;101576.06;;;19.51;59.53
59043;BME280;44826;51.596;5.624;2022-07-29T10:21:09;101568.94;;;19.53;59.03
59043;BME280;44826;51.596;5.624;2022-07-29T10:23:36;101572.34;;;19.55;59.44
59043;BME280;44826;51.596;5.624;2022-07-29T10:26:03;101576.59;;;19.58;58.48
59043;BME280;44826;51.596;5.624;2022-07-29T10:28:30;101577.31;;;19.62;60.66
59043;BME280;44826;51.596;5.624;2022-07-29T10:31:00;101566.41;;;19.68;57.51
59043;BME280;44826;51.596;5.624;2022-07-29T10:33:51;101569.59;;;19.75;59.19
59043;BME280;44826;51.596;5.624;2022-07-29T10:36:45;101557.78;;;19.82;58.24
59043;BME280;44826;51.596;5.624;2022-07-29T10:39:53;101562.91;;;19.85;59.38
59043;BME280;44826;51.596;5.624;2022-07-29T10:42:25;101560.88;;;19.90;57.24
59043;BME280;44826;51.596;5.624;2022-07-29T10:44:51;101567.69;;;19.94;57.37
59043;BME280;44826;51.596;5.624;2022-07-29T10:47:24;101570.09;;;19.99;56.64
59043;BME280;44826;51.596;5.624;2022-07-29T10:50:00;101567.22;;;20.04;56.55
59043;BME280;44826;51.596;5.624;2022-07-29T10:52:55;101567.91;;;20.07;56.47
59043;BME280;44826;51.596;5.624;2022-07-29T10:55:38;101567.72;;;20.10;56.25
59043;BME280;44826;51.596;5.624;2022-07-29T10:58:20;101570.88;;;20.17;55.45
59043;BME280;44826;51.596;5.624;2022-07-29T11:00:48;101560.22;;;20.19;55.84
59043;BME280;44826;51.596;5.624;2022-07-29T11:03:42;101566.13;;;20.24;56.70
59043;BME280;44826;51.596;5.624;2022-07-29T11:06:08;101565.19;;;20.25;55.52
59043;BME280;44826;51.596;5.624;2022-07-29T11:08:34;101562.38;;;20.28;54.34
59043;BME280;44826;51.596;5.624;2022-07-29T11:16:11;101554.84;;;20.36;54.55
59043;BME280;44826;51.596;5.624;2022-07-29T11:18:36;101550.19;;;20.41;56.59
59043;BME280;44826;51.596;5.624;2022-07-29T11:21:01;101545.41;;;20.48;55.50
59043;BME280;44826;51.596;5.624;2022-07-29T11:31:16;101556.31;;;20.58;54.13
59043;BME280;44826;51.596;5.624;2022-07-29T11:33:44;101550.84;;;20.61;52.74
59043;BME280;44826;51.596;5.624;2022-07-29T11:36:14;101554.25;;;20.63;51.83
59043;BME280;44826;51.596;5.624;2022-07-29T11:38:40;101560.03;;;20.70;51.20
59043;BME280;44826;51.596;5.624;2022-07-29T11:41:28;101557.06;;;20.76;53.80
59043;BME280;44826;51.596;5.624;2022-07-29T11:43:57;101549.81;;;20.80;52.49
59043;BME280;44826;51.596;5.624;2022-07-29T11:46:43;101555.69;;;20.85;54.23
59043;BME280;44826;51.596;5.624;2022-07-29T11:49:09;101546.72;;;20.87;52.60
59043;BME280;44826;51.596;5.624;2022-07-29T11:51:38;101549.94;;;20.92;53.38
59043;BME280;44826;51.596;5.624;2022-07-29T11:54:05;101550.47;;;20.99;53.59
59043;BME280;44826;51.596;5.624;2022-07-29T11:56:34;101555.38;;;21.05;54.21
59043;BME280;44826;51.596;5.624;2022-07-29T11:59:05;101557.66;;;21.12;53.13
59043;BME280;44826;51.596;5.624;2022-07-29T12:01:31;101549.38;;;21.18;54.76
59043;BME280;44826;51.596;5.624;2022-07-29T12:04:06;101554.28;;;21.24;53.98
59043;BME280;44826;51.596;5.624;2022-07-29T12:06:33;101556.94;;;21.24;52.39
59043;BME280;44826;51.596;5.624;2022-07-29T12:08:59;101556.84;;;21.26;53.02
59043;BME280;44826;51.596;5.624;2022-07-29T12:11:25;101550.69;;;21.25;52.28
59043;BME280;44826;51.596;5.624;2022-07-29T12:13:51;101551.47;;;21.27;51.48
59043;BME280;44826;51.596;5.624;2022-07-29T12:16:16;101554.88;;;21.29;50.89
59043;BME280;44826;51.596;5.624;2022-07-29T12:18:42;101554.69;;;21.32;51.33
59043;BME280;44826;51.596;5.624;2022-07-29T12:21:07;101556.41;;;21.33;51.06
59043;BME280;44826;51.596;5.624;2022-07-29T12:23:33;101549.09;;;21.37;52.51
59043;BME280;44826;51.596;5.624;2022-07-29T12:25:59;101551.47;;;21.42;51.91
59043;BME280;44826;51.596;5.624;2022-07-29T12:28:25;101549.31;;;21.48;52.40
59043;BME280;44826;51.596;5.624;2022-07-29T12:30:51;101551.59;;;21.55;51.44
59043;BME280;44826;51.596;5.624;2022-07-29T12:33:23;101545.84;;;21.62;52.36
59043;BME280;44826;51.596;5.624;2022-07-29T12:35:52;101540.19;;;21.68;51.34
59043;BME280;44826;51.596;5.624;2022-07-29T12:38:19;101544.16;;;21.76;51.00
59043;BME280;44826;51.596;5.624;2022-07-29T12:40:46;101543.78;;;21.82;50.78
59043;BME280;44826;51.596;5.624;2022-07-29T12:43:17;101542.41;;;21.89;52.62
59043;BME280;44826;51.596;5.624;2022-07-29T12:45:47;101551.69;;;21.96;50.82
59043;BME280;44826;51.596;5.624;2022-07-29T12:48:14;101546.03;;;22.03;51.78
59043;BME280;44826;51.596;5.624;2022-07-29T12:51:00;101543.84;;;22.09;51.41
59043;BME280;44826;51.596;5.624;2022-07-29T12:53:26;101542.03;;;22.10;48.55
59043;BME280;44826;51.596;5.624;2022-07-29T12:55:54;101543.53;;;22.14;49.40
59043;BME280;44826;51.596;5.624;2022-07-29T12:58:37;101543.34;;;22.17;49.70
59043;BME280;44826;51.596;5.624;2022-07-29T13:01:06;101546.44;;;22.24;49.81
59043;BME280;44826;51.596;5.624;2022-07-29T13:03:51;101537.25;;;22.29;50.50
59043;BME280;44826;51.596;5.624;2022-07-29T13:06:31;101532.41;;;22.36;51.12
59043;BME280;44826;51.596;5.624;2022-07-29T13:09:10;101534.69;;;22.42;50.04
59043;BME280;44826;51.596;5.624;2022-07-29T13:11:40;101538.53;;;22.51;49.36
59043;BME280;44826;51.596;5.624;2022-07-29T13:14:08;101541.00;;;22.54;47.17
59043;BME280;44826;51.596;5.624;2022-07-29T13:16:34;101535.69;;;22.54;46.44